| time (UTC) | temp F | wind direction | speed knots | gust knots | rain 1hr in | rain 24hr in | rain mn in | humidity % | barometer mb |
| 20260505171551 | 38 | 51 | 0.9 | 4.3 | 0.03 | 0.34 | 0.22 | 94 | 1014.8 |
| 20260505171045 | 38 | 51 | 0.9 | 4.3 | 0.02 | 0.33 | 0.21 | 94 | 1014.9 |
| 20260505170545 | 39 | 60 | 0.9 | 3.5 | 0.02 | 0.33 | 0.21 | 94 | 1014.9 |
| 20260505170053 | 39 | 0 | 0.0 | 2.6 | 0.03 | 0.33 | 0.21 | 94 | 1014.9 |
| 20260505165544 | 39 | 49 | 0.0 | 1.7 | 0.03 | 0.33 | 0.21 | 94 | 1015.0 |
| 20260505165044 | 38 | 0 | 0.0 | 0.0 | 0.03 | 0.33 | 0.21 | 94 | 1015.0 |
| 20260505164610 | 38 | 0 | 0.0 | 0.0 | 0.03 | 0.32 | 0.20 | 94 | 1015.1 |
| 20260505164048 | 38 | 0 | 0.0 | 0.0 | 0.03 | 0.32 | 0.20 | 94 | 1015.1 |
| 20260505163545 | 38 | 0 | 0.0 | 0.0 | 0.03 | 0.32 | 0.20 | 94 | 1015.1 |
| 20260505163053 | 38 | 0 | 0.0 | 0.9 | 0.03 | 0.32 | 0.20 | 94 | 1015.2 |
| 20260505162544 | 38 | 0 | 0.0 | 2.6 | 0.02 | 0.31 | 0.19 | 94 | 1015.2 |
| 20260505162044 | 38 | 0 | 0.0 | 2.6 | 0.03 | 0.31 | 0.19 | 94 | 1015.3 |
| 20260505161612 | 38 | 0 | 0.0 | 1.7 | 0.03 | 0.31 | 0.19 | 94 | 1015.2 |
| 20260505161044 | 38 | 0 | 0.0 | 1.7 | 0.03 | 0.31 | 0.19 | 94 | 1015.2 |
| 20260505160545 | 37 | 0 | 0.0 | 1.7 | 0.02 | 0.30 | 0.18 | 94 | 1015.2 |
| 20260505153103 | 37 | 42 | 0.0 | 1.7 | 0.03 | 0.29 | 0.17 | 94 | 1015.5 |
| 20260505152545 | 37 | 0 | 0.0 | 1.7 | 0.03 | 0.28 | 0.16 | 94 | 1015.4 |
| 20260505152044 | 37 | 0 | 0.0 | 1.7 | 0.03 | 0.28 | 0.16 | 94 | 1015.4 |
| 20260505151551 | 37 | 0 | 0.0 | 1.7 | 0.03 | 0.28 | 0.16 | 94 | 1015.5 |
| 20260505151045 | 37 | 0 | 0.0 | 3.5 | 0.03 | 0.28 | 0.16 | 94 | 1015.4 |
| 20260505150547 | 37 | 0 | 0.0 | 3.5 | 0.04 | 0.28 | 0.16 | 94 | 1015.4 |
| 20260505140545 | 37 | 0 | 0.0 | 0.0 | 0.02 | 0.24 | 0.12 | 93 | 1015.7 |
| 20260505130107 | 38 | 146 | 0.0 | 5.2 | 0.03 | 0.21 | 0.09 | 93 | 1014.9 |
| 20260505124556 | 38 | 0 | 0.0 | 4.3 | 0.05 | 0.21 | 0.09 | 93 | 1014.3 |
| 20260505124042 | 38 | 247 | 0.9 | 4.3 | 0.04 | 0.20 | 0.08 | 93 | 1014.3 |
| 20260505123541 | 38 | 76 | 0.0 | 3.5 | 0.04 | 0.20 | 0.08 | 92 | 1014.1 |
| 20260505123050 | 38 | 0 | 0.0 | 1.7 | 0.05 | 0.20 | 0.08 | 93 | 1014.1 |
| 20260505122545 | 38 | 0 | 0.0 | 6.1 | 0.04 | 0.19 | 0.07 | 92 | 1014.1 |
| 20260505122045 | 38 | 0 | 0.0 | 6.1 | 0.04 | 0.19 | 0.07 | 92 | 1014.1 |
| 20260505121551 | 38 | 0 | 0.0 | 4.3 | 0.04 | 0.19 | 0.07 | 92 | 1014.0 |
| 20260505121044 | 38 | 36 | 0.9 | 5.2 | 0.04 | 0.19 | 0.07 | 92 | 1013.9 |
| 20260505120542 | 38 | 39 | 0.0 | 5.2 | 0.03 | 0.18 | 0.06 | 92 | 1013.9 |
| 20260505120106 | 39 | 335 | 0.9 | 5.2 | 0.03 | 0.18 | 0.06 | 92 | 1013.9 |
| 20260505115541 | 39 | 82 | 0.9 | 5.2 | 0.02 | 0.17 | 0.05 | 92 | 1013.7 |
| 20260505115043 | 40 | 63 | 0.9 | 5.2 | 0.02 | 0.17 | 0.05 | 92 | 1013.6 |
| 20260505114547 | 40 | 187 | 0.9 | 5.2 | 0.01 | 0.16 | 0.04 | 92 | 1013.6 |
| 20260505114047 | 40 | 44 | 0.9 | 4.3 | 0.02 | 0.16 | 0.04 | 92 | 1013.4 |
| 20260505113544 | 41 | 78 | 0.9 | 7.0 | 0.02 | 0.16 | 0.04 | 92 | 1013.4 |
| 20260505113053 | 41 | 0 | 0.9 | 7.0 | 0.01 | 0.15 | 0.03 | 92 | 1013.3 |
| 20260505112545 | 41 | 179 | 0.9 | 4.3 | 0.02 | 0.15 | 0.03 | 92 | 1013.3 |
| 20260505112042 | 41 | 39 | 0.0 | 4.3 | 0.03 | 0.15 | 0.03 | 92 | 1013.2 |
| 20260505111548 | 41 | 251 | 0.0 | 4.3 | 0.03 | 0.15 | 0.03 | 92 | 1013.1 |
| 20260505111042 | 41 | 237 | 0.0 | 4.3 | 0.03 | 0.15 | 0.03 | 92 | 1013.0 |
| 20260505110544 | 41 | 277 | 0.0 | 5.2 | 0.03 | 0.15 | 0.03 | 91 | 1013.0 |
| 20260505110106 | 42 | 178 | 0.9 | 5.2 | 0.03 | 0.15 | 0.03 | 91 | 1012.9 |
| 20260505102042 | 44 | 115 | 0.9 | 2.6 | 0.00 | 0.12 | 0.00 | 92 | 1012.0 |
| 20260505101547 | 44 | 244 | 0.0 | 2.6 | 0.00 | 0.12 | 0.00 | 92 | 1011.9 |
| 20260505101047 | 44 | 281 | 0.0 | 2.6 | 0.00 | 0.12 | 0.00 | 92 | 1011.9 |
| 20260505100542 | 45 | 249 | 0.0 | 2.6 | 0.00 | 0.12 | 0.00 | 91 | 1011.9 |
| 20260505100052 | 45 | 0 | 0.9 | 2.6 | 0.00 | 0.12 | 0.00 | 91 | 1011.8 |
| 20260505095827 | 45 | 0 | 0.0 | 2.6 | 0.00 | 0.12 | 0.00 | 91 | 1011.8 |
| 20260505095044 | 45 | 0 | 0.0 | 2.6 | 0.00 | 0.12 | 0.00 | 91 | 1011.8 |
| 20260505094548 | 45 | 275 | 0.0 | 2.6 | 0.00 | 0.12 | 0.00 | 90 | 1011.9 |
| 20260505094045 | 46 | 284 | 0.0 | 2.6 | 0.00 | 0.12 | 0.00 | 90 | 1011.8 |
| 20260505093544 | 46 | 318 | 0.0 | 2.6 | 0.00 | 0.12 | 0.00 | 90 | 1011.8 |
| 20260505093057 | 46 | 0 | 0.0 | 1.7 | 0.00 | 0.12 | 0.00 | 90 | 1011.8 |
| 20260505092544 | 46 | 0 | 0.0 | 2.6 | 0.00 | 0.12 | 0.00 | 90 | 1011.9 |
| 20260505092042 | 46 | 0 | 0.0 | 2.6 | 0.00 | 0.12 | 0.00 | 89 | 1011.8 |
| 20260505091555 | 46 | 0 | 0.0 | 1.7 | 0.00 | 0.12 | 0.00 | 90 | 1011.7 |
| 20260505091041 | 46 | 0 | 0.0 | 1.7 | 0.00 | 0.12 | 0.00 | 90 | 1011.6 |
| 20260505090542 | 47 | 0 | 0.0 | 4.3 | 0.00 | 0.12 | 0.00 | 90 | 1011.6 |
| 20260505090051 | 47 | 0 | 0.9 | 5.2 | 0.00 | 0.12 | 0.00 | 90 | 1011.5 |
| 20260505085545 | 47 | 59 | 0.0 | 5.2 | 0.00 | 0.12 | 0.00 | 92 | 1011.5 |
| 20260505085046 | 47 | 0 | 0.9 | 5.2 | 0.00 | 0.12 | 0.00 | 92 | 1011.7 |
| 20260505084548 | 48 | 0 | 0.0 | 0.0 | 0.00 | 0.12 | 0.00 | 92 | 1011.7 |
| 20260505084044 | 48 | 0 | 0.0 | 0.0 | 0.00 | 0.12 | 0.00 | 93 | 1011.8 |
| 20260505083547 | 48 | 0 | 0.0 | 0.0 | 0.00 | 0.12 | 0.00 | 93 | 1011.9 |
| 20260505083051 | 48 | 0 | 0.0 | 0.0 | 0.00 | 0.12 | 0.00 | 93 | 1011.8 |
| 20260505082544 | 48 | 0 | 0.0 | 0.0 | 0.00 | 0.12 | 0.00 | 93 | 1011.8 |
| 20260505082041 | 48 | 0 | 0.0 | 0.0 | 0.00 | 0.12 | 0.00 | 93 | 1011.9 |
| 20260505081554 | 48 | 0 | 0.0 | 0.0 | 0.00 | 0.12 | 0.00 | 93 | 1011.9 |
| 20260505081044 | 48 | 0 | 0.0 | 0.0 | 0.00 | 0.12 | 0.00 | 92 | 1011.9 |
| 20260505080543 | 47 | 0 | 0.0 | 0.0 | 0.00 | 0.12 | 0.00 | 92 | 1011.9 |
| 20260505080055 | 47 | 0 | 0.0 | 0.0 | 0.00 | 0.12 | 0.00 | 92 | 1011.8 |
| 20260505075543 | 47 | 0 | 0.0 | 0.0 | 0.00 | 0.12 | 0.00 | 92 | 1011.7 |
| 20260505075045 | 47 | 0 | 0.0 | 0.0 | 0.00 | 0.12 | 0.00 | 92 | 1011.8 |
| 20260505074551 | 48 | 0 | 0.0 | 0.0 | 0.00 | 0.12 | 0.00 | 92 | 1011.9 |
| 20260505074046 | 48 | 0 | 0.0 | 0.0 | 0.00 | 0.12 | 0.00 | 92 | 1011.8 |
| 20260505073545 | 48 | 0 | 0.0 | 0.0 | 0.00 | 0.12 | 0.00 | 92 | 1011.9 |
| 20260505073053 | 48 | 0 | 0.0 | 1.7 | 0.00 | 0.12 | 0.00 | 92 | 1012.0 |
| 20260505072542 | 47 | 0 | 0.0 | 1.7 | 0.00 | 0.12 | 0.00 | 92 | 1012.1 |
| 20260505072048 | 48 | 0 | 0.0 | 1.7 | 0.00 | 0.12 | 0.00 | 92 | 1012.1 |
| 20260505071554 | 48 | 0 | 0.0 | 3.5 | 0.00 | 0.12 | 0.00 | 92 | 1012.2 |
| 20260505071045 | 48 | 0 | 0.9 | 3.5 | 0.00 | 0.12 | 0.00 | 92 | 1012.2 |
| 20260505070547 | 48 | 161 | 0.0 | 1.7 | 0.00 | 0.12 | 0.00 | 92 | 1012.3 |
| 20260505070101 | 48 | 0 | 0.0 | 1.7 | 0.00 | 0.12 | 0.00 | 92 | 1012.3 |
| 20260505065544 | 48 | 0 | 0.0 | 1.7 | 0.00 | 0.12 | 0.00 | 92 | 1012.2 |
| 20260505065045 | 48 | 0 | 0.0 | 1.7 | 0.00 | 0.12 | 0.00 | 92 | 1012.3 |
| 20260505064550 | 48 | 0 | 0.0 | 1.7 | 0.00 | 0.12 | 0.00 | 92 | 1012.2 |
| 20260505064042 | 48 | 0 | 0.0 | 0.9 | 0.00 | 0.12 | 0.00 | 92 | 1012.2 |
| 20260505063545 | 48 | 0 | 0.0 | 0.9 | 0.00 | 0.12 | 0.00 | 92 | 1012.4 |
| 20260505063056 | 48 | 0 | 0.0 | 1.7 | 0.00 | 0.12 | 0.00 | 92 | 1012.4 |
| 20260505062545 | 48 | 0 | 0.0 | 1.7 | 0.01 | 0.12 | 0.00 | 92 | 1012.4 |
| 20260505062043 | 48 | 0 | 0.0 | 0.9 | 0.01 | 0.12 | 0.00 | 92 | 1012.4 |
| 20260505061558 | 48 | 0 | 0.0 | 0.0 | 0.01 | 0.12 | 0.00 | 92 | 1012.4 |
| 20260505061044 | 48 | 0 | 0.0 | 1.7 | 0.01 | 0.12 | 0.00 | 92 | 1012.4 |
| 20260505060547 | 48 | 0 | 0.0 | 1.7 | 0.01 | 0.12 | 0.00 | 92 | 1012.3 |
| 20260505060058 | 48 | 157 | 0.0 | 1.7 | 0.01 | 0.12 | 0.00 | 92 | 1012.4 |
| 20260505055545 | 48 | 0 | 0.0 | 2.6 | 0.02 | 0.12 | 0.12 | 92 | 1012.5 |
| 20260505055045 | 48 | 0 | 0.0 | 2.6 | 0.02 | 0.12 | 0.12 | 92 | 1012.4 |
| 20260505054554 | 48 | 0 | 0.0 | 1.7 | 0.02 | 0.12 | 0.12 | 92 | 1012.4 |
| 20260505054046 | 48 | 202 | 0.0 | 1.7 | 0.02 | 0.12 | 0.12 | 91 | 1012.1 |
| 20260505053541 | 48 | 0 | 0.0 | 0.0 | 0.03 | 0.12 | 0.12 | 91 | 1012.1 |
| 20260505053105 | 48 | 0 | 0.0 | 0.0 | 0.03 | 0.12 | 0.12 | 91 | 1012.3 |
| 20260505052545 | 48 | 0 | 0.0 | 0.0 | 0.02 | 0.11 | 0.11 | 91 | 1012.3 |
| 20260505052049 | 48 | 0 | 0.0 | 0.0 | 0.02 | 0.11 | 0.11 | 91 | 1012.2 |
| 20260505051556 | 48 | 0 | 0.0 | 0.0 | 0.03 | 0.11 | 0.11 | 91 | 1012.4 |
| 20260505051049 | 48 | 0 | 0.0 | 0.0 | 0.03 | 0.11 | 0.11 | 91 | 1012.6 |
| 20260505050541 | 48 | 0 | 0.0 | 0.9 | 0.03 | 0.11 | 0.11 | 91 | 1012.5 |
| 20260505041553 | 48 | 0 | 0.0 | 3.5 | 0.05 | 0.08 | 0.08 | 89 | 1012.9 |
| 20260505041044 | 48 | 244 | 0.0 | 3.5 | 0.05 | 0.08 | 0.08 | 88 | 1012.9 |
| 20260505040545 | 49 | 246 | 0.0 | 3.5 | 0.05 | 0.08 | 0.08 | 88 | 1012.8 |
| 20260505040052 | 49 | 0 | 0.9 | 3.5 | 0.04 | 0.07 | 0.07 | 87 | 1012.8 |
| 20260505035545 | 49 | 202 | 0.9 | 2.6 | 0.04 | 0.07 | 0.07 | 86 | 1012.7 |
| 20260505035044 | 50 | 244 | 0.0 | 2.6 | 0.03 | 0.06 | 0.06 | 85 | 1012.8 |
| 20260505034549 | 50 | 213 | 0.9 | 9.6 | 0.03 | 0.06 | 0.06 | 83 | 1012.8 |
| 20260505034045 | 51 | 254 | 0.9 | 9.6 | 0.02 | 0.05 | 0.05 | 82 | 1012.7 |
| 20260505033545 | 51 | 262 | 1.7 | 5.2 | 0.01 | 0.04 | 0.04 | 80 | 1012.8 |
| 20260505033054 | 52 | 236 | 0.9 | 3.5 | 0.00 | 0.03 | 0.03 | 77 | 1012.6 |
| 20260505032546 | 52 | 263 | 0.0 | 1.7 | 0.00 | 0.03 | 0.03 | 78 | 1012.5 |
| 20260505032044 | 51 | 0 | 0.0 | 1.7 | 0.00 | 0.03 | 0.03 | 78 | 1012.0 |
| 20260505031552 | 51 | 0 | 0.0 | 1.7 | 0.00 | 0.03 | 0.03 | 79 | 1011.8 |
| 20260505031045 | 51 | 0 | 0.0 | 1.7 | 0.00 | 0.03 | 0.03 | 79 | 1011.7 |
| 20260505030545 | 51 | 0 | 0.0 | 0.0 | 0.00 | 0.03 | 0.03 | 79 | 1011.6 |
| 20260505025547 | 51 | 0 | 0.0 | 1.7 | 0.00 | 0.03 | 0.03 | 79 | 1011.4 |
| 20260505025049 | 51 | 0 | 0.0 | 1.7 | 0.00 | 0.03 | 0.03 | 79 | 1011.4 |
| 20260505024557 | 51 | 0 | 0.0 | 2.6 | 0.00 | 0.03 | 0.03 | 80 | 1011.2 |
| 20260505024047 | 51 | 0 | 0.0 | 2.6 | 0.00 | 0.03 | 0.03 | 80 | 1011.1 |
| 20260505023546 | 51 | 175 | 0.0 | 0.9 | 0.00 | 0.03 | 0.03 | 82 | 1011.0 |
| 20260505023057 | 51 | 0 | 0.0 | 0.9 | 0.00 | 0.03 | 0.03 | 85 | 1011.0 |
| 20260505022545 | 51 | 0 | 0.0 | 0.0 | 0.00 | 0.03 | 0.03 | 86 | 1010.8 |
| 20260505022045 | 51 | 0 | 0.0 | 0.0 | 0.00 | 0.03 | 0.03 | 85 | 1010.9 |
| 20260505021600 | 51 | 0 | 0.0 | 0.0 | 0.00 | 0.03 | 0.03 | 85 | 1010.8 |
| 20260505021044 | 51 | 0 | 0.0 | 0.0 | 0.00 | 0.03 | 0.03 | 85 | 1010.7 |
| 20260505020545 | 51 | 0 | 0.0 | 0.0 | 0.00 | 0.03 | 0.03 | 85 | 1010.9 |
| 20260505020052 | 51 | 0 | 0.0 | 0.0 | 0.01 | 0.03 | 0.03 | 85 | 1011.0 |
| 20260505015545 | 51 | 0 | 0.0 | 0.0 | 0.01 | 0.03 | 0.03 | 84 | 1010.8 |
| 20260505015045 | 51 | 0 | 0.0 | 0.0 | 0.02 | 0.03 | 0.03 | 83 | 1010.7 |
| 20260505014549 | 51 | 0 | 0.0 | 0.0 | 0.03 | 0.03 | 0.03 | 82 | 1010.5 |
| 20260505014047 | 51 | 0 | 0.0 | 0.0 | 0.03 | 0.03 | 0.03 | 82 | 1010.3 |
| 20260505013544 | 52 | 0 | 0.0 | 1.7 | 0.03 | 0.03 | 0.03 | 81 | 1010.2 |
| 20260505013051 | 52 | 0 | 0.0 | 1.7 | 0.03 | 0.03 | 0.03 | 80 | 1010.2 |
| 20260505012545 | 52 | 0 | 0.0 | 1.7 | 0.03 | 0.03 | 0.03 | 79 | 1010.3 |
| 20260505012048 | 52 | 0 | 0.0 | 1.7 | 0.03 | 0.03 | 0.03 | 78 | 1010.3 |
| 20260505011553 | 53 | 44 | 0.0 | 1.7 | 0.03 | 0.03 | 0.03 | 77 | 1010.4 |
| 20260505011048 | 53 | 0 | 0.0 | 0.0 | 0.03 | 0.03 | 0.03 | 78 | 1010.7 |
| 20260505010546 | 54 | 0 | 0.0 | 0.9 | 0.03 | 0.03 | 0.03 | 75 | 1010.7 |
| 20260505010051 | 54 | 0 | 0.0 | 6.1 | 0.02 | 0.02 | 0.02 | 72 | 1010.8 |
| 20260505005545 | 55 | 0 | 0.9 | 6.1 | 0.01 | 0.01 | 0.01 | 66 | 1011.0 |
| 20260505005045 | 56 | 203 | 0.9 | 7.0 | 0.00 | 0.00 | 0.00 | 61 | 1011.0 |
| 20260505004551 | 58 | 245 | 0.9 | 7.8 | 0.00 | 0.00 | 0.00 | 58 | 1011.0 |
| 20260505004044 | 60 | 249 | 2.6 | 7.8 | 0.00 | 0.00 | 0.00 | 50 | 1011.0 |
| 20260505003548 | 61 | 81 | 0.0 | 3.5 | 0.00 | 0.00 | 0.00 | 45 | 1010.8 |
| 20260505003051 | 61 | 0 | 0.9 | 3.5 | 0.00 | 0.00 | 0.00 | 42 | 1010.6 |
| 20260505002544 | 61 | 0 | 0.9 | 2.6 | 0.00 | 0.00 | 0.00 | 39 | 1010.7 |
| 20260505002044 | 61 | 0 | 0.0 | 2.6 | 0.00 | 0.00 | 0.00 | 38 | 1010.4 |
| 20260505001550 | 61 | 0 | 0.0 | 3.5 | 0.00 | 0.00 | 0.00 | 39 | 1010.3 |
| 20260505001044 | 62 | 280 | 0.0 | 4.3 | 0.00 | 0.00 | 0.00 | 38 | 1010.1 |
| 20260505000544 | 62 | 0 | 0.9 | 4.3 | 0.00 | 0.00 | 0.00 | 37 | 1010.0 |
| 20260504235545 | 63 | 0 | 0.0 | 3.5 | 0.00 | 0.00 | 0.00 | 35 | 1009.7 |
| 20260504235045 | 63 | 313 | 0.0 | 4.3 | 0.00 | 0.00 | 0.00 | 34 | 1009.8 |
| 20260504234555 | 63 | 0 | 0.0 | 4.3 | 0.00 | 0.00 | 0.00 | 34 | 1009.6 |
| 20260504234043 | 64 | 128 | 0.9 | 4.3 | 0.00 | 0.00 | 0.00 | 34 | 1009.6 |
| 20260504233545 | 64 | 123 | 0.0 | 5.2 | 0.00 | 0.00 | 0.00 | 34 | 1009.6 |
| 20260504233054 | 64 | 0 | 0.9 | 5.2 | 0.00 | 0.00 | 0.00 | 33 | 1009.5 |
| 20260504232546 | 65 | 57 | 0.0 | 6.1 | 0.00 | 0.00 | 0.00 | 33 | 1009.3 |
| 20260504232046 | 65 | 0 | 0.9 | 6.1 | 0.00 | 0.00 | 0.00 | 32 | 1009.2 |
| 20260504231554 | 65 | 98 | 0.9 | 4.3 | 0.00 | 0.00 | 0.00 | 32 | 1009.3 |
| 20260504231044 | 66 | 0 | 0.0 | 3.5 | 0.00 | 0.00 | 0.00 | 32 | 1009.3 |
| 20260504230546 | 66 | 158 | 0.0 | 7.8 | 0.00 | 0.00 | 0.00 | 32 | 1009.1 |
| 20260504230051 | 66 | 201 | 0.0 | 7.8 | 0.00 | 0.00 | 0.00 | 32 | 1009.0 |
| 20260504225545 | 66 | 78 | 1.7 | 9.6 | 0.00 | 0.00 | 0.00 | 31 | 1008.9 |
| 20260504225048 | 66 | 202 | 1.7 | 9.6 | 0.00 | 0.00 | 0.00 | 32 | 1008.8 |
| 20260504224551 | 66 | 207 | 1.7 | 9.6 | 0.00 | 0.00 | 0.00 | 31 | 1008.9 |
| 20260504224045 | 66 | 63 | 1.7 | 7.8 | 0.00 | 0.00 | 0.00 | 31 | 1008.9 |
| 20260504223544 | 66 | 321 | 1.7 | 7.8 | 0.00 | 0.00 | 0.00 | 31 | 1008.9 |
| 20260504223051 | 66 | 41 | 0.9 | 6.1 | 0.00 | 0.00 | 0.00 | 32 | 1008.9 |
| 20260504222545 | 65 | 82 | 0.9 | 7.0 | 0.00 | 0.00 | 0.00 | 32 | 1008.9 |
| 20260504222044 | 65 | 84 | 1.7 | 7.0 | 0.00 | 0.00 | 0.00 | 31 | 1008.9 |
| 20260504221551 | 65 | 84 | 0.9 | 5.2 | 0.00 | 0.00 | 0.00 | 32 | 1008.5 |
| 20260504221045 | 65 | 238 | 0.9 | 5.2 | 0.00 | 0.00 | 0.00 | 32 | 1008.4 |
| 20260504220545 | 65 | 111 | 1.7 | 5.2 | 0.00 | 0.00 | 0.00 | 31 | 1008.3 |
| 20260504220115 | 66 | 69 | 0.9 | 5.2 | 0.00 | 0.00 | 0.00 | 30 | 1008.1 |
| 20260504215545 | 67 | 36 | 1.7 | 5.2 | 0.00 | 0.00 | 0.00 | 30 | 1008.2 |
| 20260504215044 | 68 | 87 | 1.7 | 5.2 | 0.00 | 0.00 | 0.00 | 28 | 1008.0 |
| 20260504214554 | 68 | 213 | 0.9 | 4.3 | 0.00 | 0.00 | 0.00 | 25 | 1007.8 |
| 20260504214044 | 69 | 205 | 0.0 | 3.5 | 0.00 | 0.00 | 0.00 | 25 | 1008.0 |
| 20260504213544 | 69 | 0 | 0.0 | 3.5 | 0.00 | 0.00 | 0.00 | 25 | 1008.0 |
| 20260504213101 | 69 | 91 | 0.9 | 3.5 | 0.00 | 0.00 | 0.00 | 25 | 1008.1 |
| 20260504212545 | 70 | 315 | 0.0 | 4.3 | 0.00 | 0.00 | 0.00 | 24 | 1008.1 |
| 20260504212045 | 70 | 0 | 0.9 | 4.3 | 0.00 | 0.00 | 0.00 | 25 | 1008.2 |
| 20260504211558 | 70 | 236 | 0.0 | 6.1 | 0.00 | 0.00 | 0.00 | 25 | 1008.3 |
| 20260504211046 | 70 | 117 | 0.9 | 6.1 | 0.00 | 0.00 | 0.00 | 25 | 1008.4 |
| 20260504210541 | 70 | 0 | 0.0 | 5.2 | 0.00 | 0.00 | 0.00 | 26 | 1008.5 |
| 20260504210051 | 70 | 78 | 0.9 | 5.2 | 0.00 | 0.00 | 0.00 | 25 | 1008.6 |
| 20260504205544 | 70 | 0 | 0.9 | 5.2 | 0.00 | 0.00 | 0.00 | 24 | 1008.5 |
| 20260504205044 | 69 | 54 | 0.9 | 5.2 | 0.00 | 0.00 | 0.00 | 26 | 1008.4 |
| 20260504204551 | 69 | 175 | 0.9 | 4.3 | 0.00 | 0.00 | 0.00 | 24 | 1008.7 |
| 20260504204045 | 69 | 0 | 0.9 | 4.3 | 0.00 | 0.00 | 0.00 | 24 | 1008.7 |
| 20260504203545 | 68 | 0 | 0.9 | 3.5 | 0.00 | 0.00 | 0.00 | 25 | 1008.7 |
| 20260504203050 | 68 | 112 | 0.9 | 3.5 | 0.00 | 0.00 | 0.00 | 26 | 1008.9 |
| 20260504202544 | 68 | 221 | 0.0 | 2.6 | 0.00 | 0.00 | 0.00 | 26 | 1008.7 |
| 20260504202045 | 68 | 0 | 0.0 | 5.2 | 0.00 | 0.00 | 0.00 | 29 | 1008.6 |
| 20260504201557 | 67 | 0 | 0.0 | 5.2 | 0.00 | 0.00 | 0.00 | 29 | 1008.6 |
| 20260504201045 | 67 | 278 | 0.9 | 7.0 | 0.00 | 0.00 | 0.00 | 28 | 1008.9 |
| 20260504200544 | 67 | 161 | 0.9 | 7.0 | 0.00 | 0.00 | 0.00 | 30 | 1009.0 |
| 20260504200054 | 66 | 267 | 1.7 | 4.3 | 0.00 | 0.00 | 0.00 | 30 | 1009.0 |
| 20260504195544 | 66 | 231 | 1.7 | 3.5 | 0.00 | 0.00 | 0.00 | 29 | 1009.0 |
| 20260504195044 | 65 | 236 | 0.9 | 7.8 | 0.00 | 0.00 | 0.00 | 28 | 1009.0 |
| 20260504194553 | 64 | 0 | 0.9 | 7.8 | 0.00 | 0.00 | 0.00 | 31 | 1009.0 |
| 20260504194045 | 64 | 249 | 1.7 | 6.1 | 0.00 | 0.00 | 0.00 | 33 | 1009.2 |
| 20260504193541 | 63 | 0 | 0.9 | 6.1 | 0.00 | 0.00 | 0.00 | 35 | 1009.2 |
| 20260504193052 | 63 | 0 | 0.9 | 17.4 | 0.00 | 0.00 | 0.00 | 42 | 1009.3 |
| 20260504192544 | 64 | 278 | 2.6 | 17.4 | 0.00 | 0.00 | 0.00 | 40 | 1009.8 |
| 20260504192044 | 67 | 255 | 2.6 | 8.7 | 0.00 | 0.00 | 0.00 | 25 | 1010.4 |
| 20260504191557 | 68 | 238 | 0.9 | 8.7 | 0.00 | 0.00 | 0.00 | 24 | 1009.5 |
| 20260504191044 | 69 | 145 | 0.9 | 6.1 | 0.00 | 0.00 | 0.00 | 23 | 1009.3 |
| 20260504190545 | 70 | 232 | 0.9 | 6.1 | 0.00 | 0.00 | 0.00 | 22 | 1009.1 |
| 20260504190107 | 70 | 0 | 0.0 | 2.6 | 0.00 | 0.00 | 0.00 | 20 | 1009.0 |
| 20260504185544 | 70 | 0 | 0.0 | 3.5 | 0.00 | 0.00 | 0.00 | 21 | 1008.9 |
| 20260504185044 | 71 | 203 | 0.0 | 3.5 | 0.00 | 0.00 | 0.00 | 22 | 1008.8 |
| 20260504184611 | 71 | 234 | 0.0 | 3.5 | 0.00 | 0.00 | 0.00 | 22 | 1008.8 |
| 20260504184045 | 71 | 0 | 0.0 | 4.3 | 0.00 | 0.00 | 0.00 | 22 | 1008.7 |
| 20260504183545 | 72 | 99 | 0.9 | 4.3 | 0.00 | 0.00 | 0.00 | 22 | 1008.8 |
| 20260504183104 | 72 | 181 | 0.9 | 7.0 | 0.00 | 0.00 | 0.00 | 21 | 1008.8 |
| 20260504182545 | 73 | 0 | 0.9 | 7.0 | 0.00 | 0.00 | 0.00 | 20 | 1008.8 |
| 20260504182044 | 73 | 217 | 0.0 | 7.0 | 0.00 | 0.00 | 0.00 | 21 | 1008.8 |
| 20260504181550 | 73 | 226 | 1.7 | 7.0 | 0.00 | 0.00 | 0.00 | 21 | 1008.7 |
| 20260504181044 | 74 | 0 | 0.0 | 5.2 | 0.00 | 0.00 | 0.00 | 21 | 1008.7 |
| 20260504180545 | 74 | 257 | 0.9 | 4.3 | 0.00 | 0.00 | 0.00 | 20 | 1008.7 |
| 20260504180051 | 75 | 57 | 0.9 | 4.3 | 0.00 | 0.00 | 0.00 | 19 | 1008.9 |
| 20260504175545 | 75 | 114 | 0.9 | 8.7 | 0.00 | 0.00 | 0.00 | 19 | 1008.8 |
| 20260504175045 | 75 | 238 | 0.9 | 8.7 | 0.00 | 0.00 | 0.00 | 20 | 1008.9 |
| 20260504174549 | 76 | 0 | 1.7 | 6.1 | 0.00 | 0.00 | 0.00 | 20 | 1009.0 |
| 20260504174044 | 76 | 265 | 0.9 | 4.3 | 0.00 | 0.00 | 0.00 | 19 | 1009.0 |
| 20260504173545 | 76 | 227 | 0.9 | 5.2 | 0.00 | 0.00 | 0.00 | 20 | 1009.2 |
| 20260504173056 | 75 | 66 | 0.9 | 6.1 | 0.00 | 0.00 | 0.00 | 22 | 1009.2 |
| 20260504172544 | 74 | 75 | 0.9 | 6.1 | 0.00 | 0.00 | 0.00 | 23 | 1009.4 |
| 20260504172044 | 74 | 214 | 1.7 | 6.1 | 0.00 | 0.00 | 0.00 | 21 | 1009.4 |